Time;durP1;ratioP1;P1;durP2;ratioP2;P2;SDS_P1;SDS_P2;PMS_P1;PMS_P2;Temp;Humidity;BMP_temperature;BMP_pressure;BME280_temperature;BME280_humidity;BME280_pressure;Samples;Min_cycle;Max_cycle;Signal;HPM_P1;HPM_P2
2022/10/13 00:00:39;;;;;;;;;;;;;;;;;;7366801;19;769;-64
2022/10/13 00:03:07;;;;;;;;;;;;;;;;;;7367325;19;1848;-66
2022/10/13 00:05:36;;;;;;;;;;;;;;;;;;7365115;19;1829;-65
2022/10/13 00:08:04;;;;;;;;;;;;;;;;;;7366393;19;879;-65
2022/10/13 00:10:33;;;;;;;;;;;;;;;;;;7366043;19;1841;-66
2022/10/13 00:13:01;;;;;;;;;;;;;;;;;;7367057;19;862;-66
2022/10/13 00:15:29;;;;;;;;;;;;;;;;;;7363461;19;1271;-66
2022/10/13 00:17:57;;;;;;;;;;;;;;;;;;7366813;19;834;-67
2022/10/13 00:20:25;;;;;;;;;;;;;;;;;;7368598;19;1757;-67
2022/10/13 00:22:53;;;;;;;;;;;;;;;;;;7363776;19;814;-66
2022/10/13 00:25:21;;;;;;;;;;;;;;;;;;7365232;19;1333;-66
2022/10/13 00:27:50;;;;;;;;;;;;;;;;;;7366076;19;775;-65
2022/10/13 00:30:21;;;;;;;;;;;;;;;;;;7364226;19;1862;-64
2022/10/13 00:32:50;;;;;;;;;;;;;;;;;;7366960;19;860;-61
2022/10/13 00:35:18;;;;;;;;;;;;;;;;;;7365209;19;1838;-65
2022/10/13 00:37:47;;;;;;;;;;;;;;;;;;7365528;19;734;-63
2022/10/13 00:40:15;;;;;;;;;;;;;;;;;;7366017;19;809;-62
2022/10/13 00:42:43;;;;;;;;;;;;;;;;;;7366209;19;821;-65
2022/10/13 00:45:11;;;;;;;;;;;;;;;;;;7363301;19;1320;-63
2022/10/13 00:47:39;;;;;;;;;;;;;;;;;;7364363;19;818;-64
2022/10/13 00:50:07;;;;;;;;;;;;;;;;;;7368280;19;1842;-64
2022/10/13 00:52:36;;;;;;;;;;;;;;;;;;7366313;19;791;-64
2022/10/13 00:55:04;;;;;;;;;;;;;;;;;;7363416;19;1370;-64
2022/10/13 00:57:32;;;;;;;;;;;;;;;;;;7368481;19;869;-64
2022/10/13 01:00:00;;;;;;;;;;;;;;;;;;7370641;19;1894;-61
2022/10/13 01:02:28;;;;;;;;;;;;;;;;;;7367847;19;878;-66
2022/10/13 01:04:56;;;;;;;;;;;;;;;;;;7366002;19;1890;-66
2022/10/13 01:07:25;;;;;;;;;;;;;;;;;;7368800;19;798;-66
2022/10/13 01:09:53;;;;;;;;;;;;;;;;;;7367364;19;874;-65
2022/10/13 01:12:21;;;;;;;;;;;;;;;;;;7363903;19;1846;-64
2022/10/13 01:14:49;;;;;;;;;;;;;;;;;;7364351;19;1294;-64
2022/10/13 01:17:18;;;;;;;;;;;;;;;;;;7365897;19;790;-64
2022/10/13 01:19:46;;;;;;;;;;;;;;;;;;7365546;19;870;-62
2022/10/13 01:22:14;;;;;;;;;;;;;;;;;;7366542;19;2187;-65
2022/10/13 01:24:42;;;;;;;;;;;;;;;;;;7363286;19;1224;-62
2022/10/13 01:27:10;;;;;;;;;;;;;;;;;;7364880;19;822;-60
2022/10/13 01:29:38;;;;;;;;;;;;;;;;;;7363785;19;800;-61
2022/10/13 01:32:07;;;;;;;;;;;;;;;;;;7362441;19;1838;-64
2022/10/13 01:34:35;;;;;;;;;;;;;;;;;;7366049;19;1318;-62
2022/10/13 01:37:03;;;;;;;;;;;;;;;;;;7371161;19;803;-61
2022/10/13 01:39:31;;;;;;;;;;;;;;;;;;7373783;19;1845;-64
2022/10/13 01:41:59;;;;;;;;;;;;;;;;;;7370489;19;831;-63
2022/10/13 01:44:27;;;;;;;;;;;;;;;;;;7370407;19;1326;-61
2022/10/13 01:46:55;;;;;;;;;;;;;;;;;;7370401;19;853;-66
2022/10/13 01:49:23;;;;;;;;;;;;;;;;;;7369885;19;835;-65
2022/10/13 01:51:52;;;;;;;;;;;;;;;;;;7368966;19;1838;-67
2022/10/13 01:54:20;;;;;;;;;;;;;;;;;;7373984;19;1808;-67
2022/10/13 01:56:48;;;;;;;;;;;;;;;;;;7371235;19;870;-67
2022/10/13 01:59:16;;;;;;;;;;;;;;;;;;7369762;19;875;-65
2022/10/13 02:01:48;;;;;;;;;;;;;;;;;;7371236;19;763;-65
2022/10/13 02:04:22;;;;;;;;;;;;;;;;;;7370309;19;1333;-65
2022/10/13 02:06:50;;;;;;;;;;;;;;;;;;7371884;19;1781;-63
2022/10/13 02:09:18;;;;;;;;;;;;;;;;;;7370154;19;795;-65
2022/10/13 02:11:46;;;;;;;;;;;;;;;;;;7369203;19;1837;-64
2022/10/13 02:14:14;;;;;;;;;;;;;;;;;;7370184;19;1310;-68
2022/10/13 02:16:42;;;;;;;;;;;;;;;;;;7374523;19;1751;-64
2022/10/13 02:19:11;;;;;;;;;;;;;;;;;;7370113;19;858;-66
2022/10/13 02:21:40;;;;;;;;;;;;;;;;;;7370242;19;875;-64
2022/10/13 02:24:08;;;;;;;;;;;;;;;;;;7372466;19;1835;-64
2022/10/13 02:26:36;;;;;;;;;;;;;;;;;;7369685;19;787;-62
2022/10/13 02:29:07;;;;;;;;;;;;;;;;;;7369803;19;763;-64
2022/10/13 02:31:35;;;;;;;;;;;;;;;;;;7368314;19;1841;-65
2022/10/13 02:34:03;;;;;;;;;;;;;;;;;;7365640;19;1397;-63
2022/10/13 02:36:31;;;;;;;;;;;;;;;;;;7374733;19;1203;-65
2022/10/13 02:38:59;;;;;;;;;;;;;;;;;;7368862;19;885;-66
2022/10/13 02:41:28;;;;;;;;;;;;;;;;;;7372636;19;1839;-64
2022/10/13 02:43:56;;;;;;;;;;;;;;;;;;7368632;19;1244;-63
2022/10/13 02:46:26;;;;;;;;;;;;;;;;;;7366604;19;738;-59
2022/10/13 02:48:54;;;;;;;;;;;;;;;;;;7369138;19;882;-59
2022/10/13 02:51:24;;;;;;;;;;;;;;;;;;7372164;19;2090;-63
2022/10/13 02:53:53;;;;;;;;;;;;;;;;;;7372762;19;1815;-64
2022/10/13 02:56:21;;;;;;;;;;;;;;;;;;7370579;19;1798;-62
2022/10/13 02:58:49;;;;;;;;;;;;;;;;;;7367990;19;819;-63
2022/10/13 03:01:17;;;;;;;;;;;;;;;;;;7368725;19;763;-63
2022/10/13 03:03:45;;;;;;;;;;;;;;;;;;7368251;19;1406;-64
2022/10/13 03:06:13;;;;;;;;;;;;;;;;;;7368620;19;858;-64
2022/10/13 03:08:41;;;;;;;;;;;;;;;;;;7367448;19;783;-59
2022/10/13 03:11:09;;;;;;;;;;;;;;;;;;7367671;19;1833;-61
2022/10/13 03:13:38;;;;;;;;;;;;;;;;;;7371102;19;1768;-64
2022/10/13 03:16:07;;;;;;;;;;;;;;;;;;7373306;19;1830;-62
2022/10/13 03:18:35;;;;;;;;;;;;;;;;;;7367977;19;803;-63
2022/10/13 03:21:04;;;;;;;;;;;;;;;;;;7368736;19;931;-63
2022/10/13 03:23:32;;;;;;;;;;;;;;;;;;7368151;19;1299;-63
2022/10/13 03:26:00;;;;;;;;;;;;;;;;;;7367742;19;697;-63
2022/10/13 03:28:28;;;;;;;;;;;;;;;;;;7367254;19;1810;-64
2022/10/13 03:30:56;;;;;;;;;;;;;;;;;;7368056;19;1834;-63
2022/10/13 03:33:24;;;;;;;;;;;;;;;;;;7368291;19;822;-65
2022/10/13 03:35:56;;;;;;;;;;;;;;;;;;7372857;19;1786;-65
2022/10/13 03:38:25;;;;;;;;;;;;;;;;;;7367197;19;799;-65
2022/10/13 03:40:53;;;;;;;;;;;;;;;;;;7368020;19;763;-67
2022/10/13 03:43:21;;;;;;;;;;;;;;;;;;7369349;19;1874;-65
2022/10/13 03:45:49;;;;;;;;;;;;;;;;;;7364826;19;1392;-64
2022/10/13 03:48:17;;;;;;;;;;;;;;;;;;7366922;19;808;-65
2022/10/13 03:50:45;;;;;;;;;;;;;;;;;;7368080;19;827;-65
2022/10/13 03:53:14;;;;;;;;;;;;;;;;;;7364403;19;1869;-61
2022/10/13 03:55:43;;;;;;;;;;;;;;;;;;7365714;19;1392;-65
2022/10/13 03:58:11;;;;;;;;;;;;;;;;;;7369173;19;1845;-65
2022/10/13 04:00:44;;;;;;;;;;;;;;;;;;7367316;19;939;-64
2022/10/13 04:03:12;;;;;;;;;;;;;;;;;;7368008;19;807;-64
2022/10/13 04:05:40;;;;;;;;;;;;;;;;;;7364725;19;1271;-62
2022/10/13 04:08:08;;;;;;;;;;;;;;;;;;7369217;19;2044;-64
2022/10/13 04:10:36;;;;;;;;;;;;;;;;;;7371043;19;1756;-63
2022/10/13 04:13:04;;;;;;;;;;;;;;;;;;7365260;19;1870;-63
2022/10/13 04:15:32;;;;;;;;;;;;;;;;;;7365708;19;1263;-60
2022/10/13 04:18:00;;;;;;;;;;;;;;;;;;7366568;19;781;-63
2022/10/13 04:20:29;;;;;;;;;;;;;;;;;;7366882;19;735;-64
2022/10/13 04:22:57;;;;;;;;;;;;;;;;;;7371036;19;1822;-64
2022/10/13 04:25:25;;;;;;;;;;;;;;;;;;7363887;19;1364;-65
2022/10/13 04:27:53;;;;;;;;;;;;;;;;;;7366429;19;1268;-56
2022/10/13 04:30:21;;;;;;;;;;;;;;;;;;7367139;19;802;-58
2022/10/13 04:32:49;;;;;;;;;;;;;;;;;;7364416;19;1838;-61
2022/10/13 04:35:18;;;;;;;;;;;;;;;;;;7362674;19;1843;-60
2022/10/13 04:37:46;;;;;;;;;;;;;;;;;;7365685;19;842;-65
2022/10/13 04:40:14;;;;;;;;;;;;;;;;;;7365865;19;892;-65
2022/10/13 04:42:42;;;;;;;;;;;;;;;;;;7365967;19;1820;-65
2022/10/13 04:45:10;;;;;;;;;;;;;;;;;;7365300;19;1790;-64
2022/10/13 04:47:41;;;;;;;;;;;;;;;;;;7365689;19;723;-64
2022/10/13 04:50:09;;;;;;;;;;;;;;;;;;7367502;19;1837;-64
2022/10/13 04:52:37;;;;;;;;;;;;;;;;;;7363777;19;1845;-63
2022/10/13 04:55:05;;;;;;;;;;;;;;;;;;7363719;19;1322;-62
2022/10/13 04:57:34;;;;;;;;;;;;;;;;;;7365717;19;838;-63
2022/10/13 05:00:02;;;;;;;;;;;;;;;;;;7365992;19;781;-63
2022/10/13 05:02:32;;;;;;;;;;;;;;;;;;7365685;19;752;-63
2022/10/13 05:05:04;;;;;;;;;;;;;;;;;;7367732;19;1770;-64
2022/10/13 05:07:32;;;;;;;;;;;;;;;;;;7365054;19;862;-59
2022/10/13 05:10:00;;;;;;;;;;;;;;;;;;7369362;19;870;-64
2022/10/13 05:12:29;;;;;;;;;;;;;;;;;;7370856;19;1854;-60
2022/10/13 05:14:57;;;;;;;;;;;;;;;;;;7370398;19;1403;-65
2022/10/13 05:17:25;;;;;;;;;;;;;;;;;;7374751;19;1793;-63
2022/10/13 05:19:54;;;;;;;;;;;;;;;;;;7369903;19;806;-64
2022/10/13 05:22:22;;;;;;;;;;;;;;;;;;7371104;19;859;-65
2022/10/13 05:24:51;;;;;;;;;;;;;;;;;;7374051;19;1727;-65
2022/10/13 05:27:19;;;;;;;;;;;;;;;;;;7371177;19;869;-65
2022/10/13 05:29:47;;;;;;;;;;;;;;;;;;7369831;19;880;-64
2022/10/13 05:32:15;;;;;;;;;;;;;;;;;;7373156;19;1845;-65
2022/10/13 05:34:44;;;;;;;;;;;;;;;;;;7369803;19;1260;-58
2022/10/13 05:37:12;;;;;;;;;;;;;;;;;;7370868;19;828;-66
2022/10/13 05:39:41;;;;;;;;;;;;;;;;;;7369847;19;807;-65
2022/10/13 05:42:09;;;;;;;;;;;;;;;;;;7370785;19;810;-65
2022/10/13 05:44:37;;;;;;;;;;;;;;;;;;7372892;19;1894;-63
2022/10/13 05:47:05;;;;;;;;;;;;;;;;;;7370463;19;1685;-63
2022/10/13 05:49:35;;;;;;;;;;;;;;;;;;7369642;19;827;-63
2022/10/13 05:52:03;;;;;;;;;;;;;;;;;;7369413;19;1842;-64
2022/10/13 05:54:31;;;;;;;;;;;;;;;;;;7368794;19;1316;-64
2022/10/13 05:56:59;;;;;;;;;;;;;;;;;;7370329;19;942;-63
2022/10/13 05:59:29;;;;;;;;;;;;;;;;;;7371601;19;1779;-65
2022/10/13 06:01:57;;;;;;;;;;;;;;;;;;7370380;19;1768;-62
2022/10/13 06:04:26;;;;;;;;;;;;;;;;;;7374531;19;2076;-64
2022/10/13 06:06:54;;;;;;;;;;;;;;;;;;7370355;19;812;-63
2022/10/13 06:09:22;;;;;;;;;;;;;;;;;;7370199;19;812;-64
2022/10/13 06:11:51;;;;;;;;;;;;;;;;;;7369141;19;1852;-65
2022/10/13 06:14:19;;;;;;;;;;;;;;;;;;7373220;19;1824;-66
2022/10/13 06:16:47;;;;;;;;;;;;;;;;;;7370031;19;778;-65
2022/10/13 06:19:15;;;;;;;;;;;;;;;;;;7369170;19;881;-63
2022/10/13 06:21:43;;;;;;;;;;;;;;;;;;7370114;19;1833;-64
2022/10/13 06:24:11;;;;;;;;;;;;;;;;;;7373293;19;2242;-61
2022/10/13 06:26:40;;;;;;;;;;;;;;;;;;7371290;19;1786;-59
2022/10/13 06:29:08;;;;;;;;;;;;;;;;;;7368826;19;851;-61
2022/10/13 06:31:36;;;;;;;;;;;;;;;;;;7369688;19;772;-61
2022/10/13 06:34:06;;;;;;;;;;;;;;;;;;7369372;19;2037;-62
2022/10/13 06:36:35;;;;;;;;;;;;;;;;;;7370229;19;795;-61
2022/10/13 06:39:03;;;;;;;;;;;;;;;;;;7368589;19;878;-61
2022/10/13 06:41:31;;;;;;;;;;;;;;;;;;7372929;19;1783;-58
2022/10/13 06:43:59;;;;;;;;;;;;;;;;;;7368593;19;1255;-59
2022/10/13 06:46:29;;;;;;;;;;;;;;;;;;7367943;19;727;-61
2022/10/13 06:48:58;;;;;;;;;;;;;;;;;;7367374;19;918;-61
2022/10/13 06:51:26;;;;;;;;;;;;;;;;;;7369702;19;908;-61
2022/10/13 06:53:54;;;;;;;;;;;;;;;;;;7366744;19;2064;-60
2022/10/13 06:56:25;;;;;;;;;;;;;;;;;;7371045;19;2106;-61
2022/10/13 06:58:53;;;;;;;;;;;;;;;;;;7370567;19;1833;-62
2022/10/13 07:01:21;;;;;;;;;;;;;;;;;;7370102;19;819;-62
2022/10/13 07:03:49;;;;;;;;;;;;;;;;;;7371903;19;1594;-62
2022/10/13 07:06:20;;;;;;;;;;;;;;;;;;7369209;19;930;-61
2022/10/13 07:08:48;;;;;;;;;;;;;;;;;;7368574;19;812;-61
2022/10/13 07:11:17;;;;;;;;;;;;;;;;;;7368790;19;799;-62
2022/10/13 07:13:50;;;;;;;;;;;;;;;;;;7367031;19;1875;-62
2022/10/13 07:16:18;;;;;;;;;;;;;;;;;;7368930;19;1801;-59
2022/10/13 07:18:46;;;;;;;;;;;;;;;;;;7367845;19;799;-59
2022/10/13 07:21:15;;;;;;;;;;;;;;;;;;7368869;19;1011;-62
2022/10/13 07:23:43;;;;;;;;;;;;;;;;;;7370940;19;1267;-61
2022/10/13 07:26:11;;;;;;;;;;;;;;;;;;7369130;19;761;-59
2022/10/13 07:28:39;;;;;;;;;;;;;;;;;;7367334;19;2043;-61
2022/10/13 07:31:08;;;;;;;;;;;;;;;;;;7370439;19;1778;-62
2022/10/13 07:33:38;;;;;;;;;;;;;;;;;;7369487;19;2049;-62
2022/10/13 07:36:06;;;;;;;;;;;;;;;;;;7368606;19;897;-60
2022/10/13 07:38:35;;;;;;;;;;;;;;;;;;7371741;19;1704;-60
2022/10/13 07:41:03;;;;;;;;;;;;;;;;;;7366397;19;812;-58
2022/10/13 07:43:31;;;;;;;;;;;;;;;;;;7367997;19;1290;-64
2022/10/13 07:46:00;;;;;;;;;;;;;;;;;;7371762;19;1782;-56
2022/10/13 07:48:28;;;;;;;;;;;;;;;;;;7367446;19;894;-57
2022/10/13 07:50:58;;;;;;;;;;;;;;;;;;7368732;19;2086;-61
2022/10/13 07:53:26;;;;;;;;;;;;;;;;;;7366818;19;2055;-61
2022/10/13 07:55:55;;;;;;;;;;;;;;;;;;7368328;19;870;-60
2022/10/13 07:58:23;;;;;;;;;;;;;;;;;;7371506;19;2003;-61
2022/10/13 08:00:51;;;;;;;;;;;;;;;;;;7368442;19;878;-61
2022/10/13 08:03:20;;;;;;;;;;;;;;;;;;7367903;19;862;-60
2022/10/13 08:05:48;;;;;;;;;;;;;;;;;;7365286;19;1308;-61
2022/10/13 08:08:16;;;;;;;;;;;;;;;;;;7366763;19;878;-61
2022/10/13 08:10:44;;;;;;;;;;;;;;;;;;7367691;19;2062;-59
2022/10/13 08:13:12;;;;;;;;;;;;;;;;;;7365780;19;1838;-63
2022/10/13 08:15:40;;;;;;;;;;;;;;;;;;7366924;19;1851;-61
2022/10/13 08:18:08;;;;;;;;;;;;;;;;;;7346168;19;20632;-60
2022/10/13 08:20:37;;;;;;;;;;;;;;;;;;7371762;19;1766;-61
2022/10/13 08:23:05;;;;;;;;;;;;;;;;;;7368664;19;727;-60
2022/10/13 08:25:33;;;;;;;;;;;;;;;;;;7366628;19;1325;-60
2022/10/13 08:28:01;;;;;;;;;;;;;;;;;;7367837;19;792;-58
2022/10/13 08:30:29;;;;;;;;;;;;;;;;;;7369083;19;818;-60
2022/10/13 08:32:57;;;;;;;;;;;;;;;;;;7369192;19;1846;-59
2022/10/13 08:35:25;;;;;;;;;;;;;;;;;;7365056;19;1329;-60
2022/10/13 08:37:54;;;;;;;;;;;;;;;;;;7366067;19;743;-60
2022/10/13 08:40:22;;;;;;;;;;;;;;;;;;7367312;19;792;-57
2022/10/13 08:42:50;;;;;;;;;;;;;;;;;;7367053;19;873;-58
2022/10/13 08:45:18;;;;;;;;;;;;;;;;;;7370885;19;2254;-62
2022/10/13 08:47:47;;;;;;;;;;;;;;;;;;7376909;19;1931;-58
2022/10/13 08:50:15;;;;;;;;;;;;;;;;;;7372892;19;788;-57
2022/10/13 08:52:43;;;;;;;;;;;;;;;;;;7373100;19;1842;-60
2022/10/13 08:55:12;;;;;;;;;;;;;;;;;;7372076;19;1290;-56
2022/10/13 08:57:40;;;;;;;;;;;;;;;;;;7373026;19;847;-58
2022/10/13 09:00:08;;;;;;;;;;;;;;;;;;7373827;19;1846;-58
2022/10/13 09:02:36;;;;;;;;;;;;;;;;;;7375324;19;1837;-55
2022/10/13 09:05:04;;;;;;;;;;;;;;;;;;7372803;19;2190;-60
2022/10/13 09:07:33;;;;;;;;;;;;;;;;;;7372895;19;792;-62
2022/10/13 09:10:01;;;;;;;;;;;;;;;;;;7371859;19;828;-61
2022/10/13 09:12:30;;;;;;;;;;;;;;;;;;7374378;19;1837;-59
2022/10/13 09:14:58;;;;;;;;;;;;;;;;;;7374351;19;2027;-58
2022/10/13 09:17:26;;;;;;;;;;;;;;;;;;7377555;19;1768;-55
2022/10/13 09:19:54;;;;;;;;;;;;;;;;;;7372909;19;706;-54
2022/10/13 09:22:22;;;;;;;;;;;;;;;;;;7373430;19;903;-59
2022/10/13 09:24:51;;;;;;;;;;;;;;;;;;7371157;19;1341;-57
2022/10/13 09:27:19;;;;;;;;;;;;;;;;;;7371593;19;902;-55
2022/10/13 09:29:47;;;;;;;;;;;;;;;;;;7373057;19;1805;-56
2022/10/13 09:32:15;;;;;;;;;;;;;;;;;;7371445;19;884;-60
2022/10/13 09:34:43;;;;;;;;;;;;;;;;;;7370338;19;1845;-62
2022/10/13 09:37:11;;;;;;;;;;;;;;;;;;7372408;19;807;-60
2022/10/13 09:39:40;;;;;;;;;;;;;;;;;;7371257;19;800;-58
2022/10/13 09:42:08;;;;;;;;;;;;;;;;;;7370925;19;863;-61
2022/10/13 09:44:36;;;;;;;;;;;;;;;;;;7369919;19;1335;-61
2022/10/13 09:47:04;;;;;;;;;;;;;;;;;;7373912;19;1794;-61
2022/10/13 09:49:33;;;;;;;;;;;;;;;;;;7370536;19;865;-60
2022/10/13 09:52:01;;;;;;;;;;;;;;;;;;7371746;19;800;-57
2022/10/13 09:54:29;;;;;;;;;;;;;;;;;;7372434;19;1913;-61
2022/10/13 09:56:59;;;;;;;;;;;;;;;;;;7371156;19;1839;-65
2022/10/13 09:59:30;;;;;;;;;;;;;;;;;;7369989;19;772;-61
2022/10/13 10:01:58;;;;;;;;;;;;;;;;;;7370137;19;1833;-59
2022/10/13 10:04:26;;;;;;;;;;;;;;;;;;7369256;19;1362;-61
2022/10/13 10:06:55;;;;;;;;;;;;;;;;;;7370339;19;808;-57
2022/10/13 10:09:23;;;;;;;;;;;;;;;;;;7372235;19;2015;-62
2022/10/13 10:11:51;;;;;;;;;;;;;;;;;;7370321;19;814;-61
2022/10/13 10:14:20;;;;;;;;;;;;;;;;;;7368199;19;1870;-61
2022/10/13 10:16:48;;;;;;;;;;;;;;;;;;7369847;19;812;-58
2022/10/13 10:19:16;;;;;;;;;;;;;;;;;;7371681;19;1796;-58
2022/10/13 10:21:45;;;;;;;;;;;;;;;;;;7371744;19;1668;-63
2022/10/13 10:24:13;;;;;;;;;;;;;;;;;;7369748;19;1345;-58
2022/10/13 10:26:41;;;;;;;;;;;;;;;;;;7372258;19;1813;-62
2022/10/13 10:29:09;;;;;;;;;;;;;;;;;;7373883;19;2042;-57
2022/10/13 10:31:39;;;;;;;;;;;;;;;;;;7371504;19;857;-61
2022/10/13 10:34:07;;;;;;;;;;;;;;;;;;7367993;19;1841;-61
2022/10/13 10:36:35;;;;;;;;;;;;;;;;;;7368787;19;831;-57
2022/10/13 10:39:03;;;;;;;;;;;;;;;;;;7368437;19;815;-59
2022/10/13 10:41:32;;;;;;;;;;;;;;;;;;7368935;19;720;-59
2022/10/13 10:44:00;;;;;;;;;;;;;;;;;;7368493;19;1279;-57
2022/10/13 10:46:29;;;;;;;;;;;;;;;;;;7370659;19;2006;-59
2022/10/13 10:48:57;;;;;;;;;;;;;;;;;;7368010;19;865;-56
2022/10/13 10:51:25;;;;;;;;;;;;;;;;;;7373609;19;1807;-54
2022/10/13 10:53:53;;;;;;;;;;;;;;;;;;7367026;19;1858;-58
2022/10/13 10:56:21;;;;;;;;;;;;;;;;;;7369190;19;812;-54
2022/10/13 10:58:49;;;;;;;;;;;;;;;;;;7372135;19;1837;-54
2022/10/13 11:01:18;;;;;;;;;;;;;;;;;;7370707;19;1827;-53
2022/10/13 11:03:46;;;;;;;;;;;;;;;;;;7368205;19;1342;-56
2022/10/13 11:06:14;;;;;;;;;;;;;;;;;;7368216;19;806;-57
2022/10/13 11:08:42;;;;;;;;;;;;;;;;;;7370699;19;1684;-54
2022/10/13 11:11:10;;;;;;;;;;;;;;;;;;7368300;19;779;-57
2022/10/13 11:13:38;;;;;;;;;;;;;;;;;;7367824;19;1846;-57
2022/10/13 11:16:06;;;;;;;;;;;;;;;;;;7368012;19;846;-59
2022/10/13 11:18:34;;;;;;;;;;;;;;;;;;7367002;19;810;-52
2022/10/13 11:21:03;;;;;;;;;;;;;;;;;;7367923;19;791;-56
2022/10/13 11:23:31;;;;;;;;;;;;;;;;;;7370382;19;2040;-57
2022/10/13 11:26:00;;;;;;;;;;;;;;;;;;7367924;19;737;-57
2022/10/13 11:28:29;;;;;;;;;;;;;;;;;;7367810;19;798;-56
2022/10/13 11:30:57;;;;;;;;;;;;;;;;;;7365035;19;1782;-55
2022/10/13 11:33:25;;;;;;;;;;;;;;;;;;7369077;19;1842;-57
2022/10/13 11:35:53;;;;;;;;;;;;;;;;;;7360360;19;1842;-60
2022/10/13 11:38:22;;;;;;;;;;;;;;;;;;7365990;19;2015;-58
2022/10/13 11:40:50;;;;;;;;;;;;;;;;;;7367738;19;801;-60
2022/10/13 11:43:18;;;;;;;;;;;;;;;;;;7367790;19;871;-58
2022/10/13 11:45:47;;;;;;;;;;;;;;;;;;7364600;19;1326;-58
2022/10/13 11:48:16;;;;;;;;;;;;;;;;;;7367609;19;873;-55
2022/10/13 11:50:45;;;;;;;;;;;;;;;;;;7367548;19;823;-57
2022/10/13 11:53:16;;;;;;;;;;;;;;;;;;7365648;19;2070;-56
2022/10/13 11:55:44;;;;;;;;;;;;;;;;;;7366576;19;2093;-56
2022/10/13 11:58:12;;;;;;;;;;;;;;;;;;7366761;19;843;-54
2022/10/13 12:00:40;;;;;;;;;;;;;;;;;;7367350;19;1825;-56
2022/10/13 12:03:08;;;;;;;;;;;;;;;;;;7371442;19;1863;-57
2022/10/13 12:05:37;;;;;;;;;;;;;;;;;;7363954;19;1286;-57
2022/10/13 12:08:05;;;;;;;;;;;;;;;;;;7363565;19;1246;-56
2022/10/13 12:10:34;;;;;;;;;;;;;;;;;;7361012;19;1568;-59
2022/10/13 12:13:03;;;;;;;;;;;;;;;;;;7362205;19;1863;-57
2022/10/13 12:15:32;;;;;;;;;;;;;;;;;;7362120;19;1861;-54
2022/10/13 12:18:00;;;;;;;;;;;;;;;;;;7361710;19;1911;-51
2022/10/13 12:20:30;;;;;;;;;;;;;;;;;;7369739;19;1352;-53
2022/10/13 12:22:58;;;;;;;;;;;;;;;;;;7366530;19;889;-56
2022/10/13 12:25:26;;;;;;;;;;;;;;;;;;7366291;19;1791;-51
2022/10/13 12:27:59;;;;;;;;;;;;;;;;;;7366351;19;710;-53
2022/10/13 12:30:27;;;;;;;;;;;;;;;;;;7366382;19;885;-50
2022/10/13 12:32:55;;;;;;;;;;;;;;;;;;7369480;19;1931;-54
2022/10/13 12:35:23;;;;;;;;;;;;;;;;;;7368198;19;1882;-53
2022/10/13 12:37:51;;;;;;;;;;;;;;;;;;7364923;19;794;-53
2022/10/13 12:40:19;;;;;;;;;;;;;;;;;;7366049;19;898;-56
2022/10/13 12:42:47;;;;;;;;;;;;;;;;;;7366075;19;814;-54
2022/10/13 12:45:15;;;;;;;;;;;;;;;;;;7368067;19;2161;-57
2022/10/13 12:47:44;;;;;;;;;;;;;;;;;;7365385;19;1831;-53
2022/10/13 12:50:12;;;;;;;;;;;;;;;;;;7365690;19;823;-53
2022/10/13 12:52:40;;;;;;;;;;;;;;;;;;7365594;19;943;-55
2022/10/13 12:55:08;;;;;;;;;;;;;;;;;;7363742;19;1842;-54
2022/10/13 12:57:37;;;;;;;;;;;;;;;;;;7365024;19;878;-58
2022/10/13 13:00:05;;;;;;;;;;;;;;;;;;7365810;19;908;-50
2022/10/13 13:02:33;;;;;;;;;;;;;;;;;;7365785;19;790;-53
2022/10/13 13:05:01;;;;;;;;;;;;;;;;;;7364997;19;2036;-52
2022/10/13 13:07:29;;;;;;;;;;;;;;;;;;7369073;19;1882;-51
2022/10/13 13:09:57;;;;;;;;;;;;;;;;;;7364498;19;883;-50
2022/10/13 13:12:26;;;;;;;;;;;;;;;;;;7365170;19;795;-50
2022/10/13 13:14:54;;;;;;;;;;;;;;;;;;7363094;19;1849;-53
2022/10/13 13:17:22;;;;;;;;;;;;;;;;;;7364769;19;807;-49
2022/10/13 13:19:50;;;;;;;;;;;;;;;;;;7364928;19;1703;-51
2022/10/13 13:22:18;;;;;;;;;;;;;;;;;;7366109;19;1829;-54
2022/10/13 13:24:46;;;;;;;;;;;;;;;;;;7362995;19;1341;-55
2022/10/13 13:27:14;;;;;;;;;;;;;;;;;;7364517;19;823;-54
2022/10/13 13:29:43;;;;;;;;;;;;;;;;;;7365825;19;1797;-52
2022/10/13 13:32:11;;;;;;;;;;;;;;;;;;7371217;19;893;-55
2022/10/13 13:34:39;;;;;;;;;;;;;;;;;;7369909;19;1842;-52
2022/10/13 13:37:07;;;;;;;;;;;;;;;;;;7372977;19;1820;-53
2022/10/13 13:39:35;;;;;;;;;;;;;;;;;;7373967;19;1819;-50
2022/10/13 13:42:03;;;;;;;;;;;;;;;;;;7371265;19;873;-53
2022/10/13 13:44:32;;;;;;;;;;;;;;;;;;7370572;19;1330;-49
2022/10/13 13:47:00;;;;;;;;;;;;;;;;;;7373507;19;757;-51
2022/10/13 13:49:28;;;;;;;;;;;;;;;;;;7374108;19;1660;-56
2022/10/13 13:51:56;;;;;;;;;;;;;;;;;;7372362;19;855;-52
2022/10/13 13:54:24;;;;;;;;;;;;;;;;;;7375234;19;2104;-48
2022/10/13 13:56:52;;;;;;;;;;;;;;;;;;7371967;19;646;-48
2022/10/13 13:59:21;;;;;;;;;;;;;;;;;;7371235;19;802;-49
2022/10/13 14:01:51;;;;;;;;;;;;;;;;;;7375395;19;1681;-54
2022/10/13 14:04:23;;;;;;;;;;;;;;;;;;7371073;19;1306;-49
2022/10/13 14:06:51;;;;;;;;;;;;;;;;;;7366607;19;829;-53
2022/10/13 14:09:20;;;;;;;;;;;;;;;;;;7367378;19;845;-53
2022/10/13 14:11:48;;;;;;;;;;;;;;;;;;7369120;19;818;-56
2022/10/13 14:14:16;;;;;;;;;;;;;;;;;;7368954;19;1838;-53
2022/10/13 14:16:44;;;;;;;;;;;;;;;;;;7371403;19;846;-50
2022/10/13 14:19:12;;;;;;;;;;;;;;;;;;7369859;19;815;-52
2022/10/13 14:21:40;;;;;;;;;;;;;;;;;;7371127;19;857;-53
2022/10/13 14:24:11;;;;;;;;;;;;;;;;;;7369628;19;1270;-53
2022/10/13 14:26:40;;;;;;;;;;;;;;;;;;7370359;19;953;-56
2022/10/13 14:29:08;;;;;;;;;;;;;;;;;;7370521;19;863;-52
2022/10/13 14:31:36;;;;;;;;;;;;;;;;;;7371168;19;827;-53
2022/10/13 14:34:04;;;;;;;;;;;;;;;;;;7369627;19;1834;-54
2022/10/13 14:36:34;;;;;;;;;;;;;;;;;;7370331;19;775;-52
2022/10/13 14:39:02;;;;;;;;;;;;;;;;;;7368959;19;854;-53
2022/10/13 14:41:31;;;;;;;;;;;;;;;;;;7367171;19;845;-55
2022/10/13 14:43:59;;;;;;;;;;;;;;;;;;7369635;19;1356;-55
2022/10/13 14:46:27;;;;;;;;;;;;;;;;;;7370423;19;864;-54
2022/10/13 14:48:55;;;;;;;;;;;;;;;;;;7369154;19;902;-49
2022/10/13 14:51:23;;;;;;;;;;;;;;;;;;7371055;19;1126;-48
2022/10/13 14:53:51;;;;;;;;;;;;;;;;;;7370147;19;1202;-50
2022/10/13 14:56:19;;;;;;;;;;;;;;;;;;7366940;19;1889;-48
2022/10/13 14:58:52;;;;;;;;;;;;;;;;;;7369776;19;757;-47
2022/10/13 15:01:21;;;;;;;;;;;;;;;;;;7369832;19;790;-47
2022/10/13 15:03:49;;;;;;;;;;;;;;;;;;7369284;19;1263;-50
2022/10/13 15:06:17;;;;;;;;;;;;;;;;;;7369767;19;853;-48
2022/10/13 15:08:45;;;;;;;;;;;;;;;;;;7369376;19;771;-49
2022/10/13 15:11:13;;;;;;;;;;;;;;;;;;7369100;19;791;-51
2022/10/13 15:13:41;;;;;;;;;;;;;;;;;;7368092;19;1277;-49
2022/10/13 15:16:09;;;;;;;;;;;;;;;;;;7366547;19;1842;-51
2022/10/13 15:18:37;;;;;;;;;;;;;;;;;;7368561;19;866;-53
2022/10/13 15:21:05;;;;;;;;;;;;;;;;;;7369224;19;989;-54
2022/10/13 15:23:34;;;;;;;;;;;;;;;;;;7368271;19;1351;-51
2022/10/13 15:26:02;;;;;;;;;;;;;;;;;;7368702;19;726;-52
2022/10/13 15:28:30;;;;;;;;;;;;;;;;;;7367728;19;1080;-52
2022/10/13 15:30:58;;;;;;;;;;;;;;;;;;7369135;19;790;-51
2022/10/13 15:33:26;;;;;;;;;;;;;;;;;;7368331;19;815;-52
2022/10/13 15:35:54;;;;;;;;;;;;;;;;;;7365126;19;1846;-54
2022/10/13 15:38:22;;;;;;;;;;;;;;;;;;7367145;19;881;-53
2022/10/13 15:40:50;;;;;;;;;;;;;;;;;;7368075;19;747;-52
2022/10/13 15:43:19;;;;;;;;;;;;;;;;;;7368447;19;897;-54
2022/10/13 15:45:47;;;;;;;;;;;;;;;;;;7365311;19;1310;-53
2022/10/13 15:48:15;;;;;;;;;;;;;;;;;;7367183;19;833;-50
2022/10/13 15:50:43;;;;;;;;;;;;;;;;;;7368750;19;889;-48
2022/10/13 15:53:11;;;;;;;;;;;;;;;;;;7369031;19;2095;-48
2022/10/13 15:55:39;;;;;;;;;;;;;;;;;;7366318;19;1849;-51
2022/10/13 15:58:07;;;;;;;;;;;;;;;;;;7367683;19;854;-49
2022/10/13 16:00:36;;;;;;;;;;;;;;;;;;7368196;19;779;-48
2022/10/13 16:03:04;;;;;;;;;;;;;;;;;;7367366;19;2093;-49
2022/10/13 16:05:32;;;;;;;;;;;;;;;;;;7365191;19;1311;-53
2022/10/13 16:08:00;;;;;;;;;;;;;;;;;;7366292;19;796;-53
2022/10/13 16:10:28;;;;;;;;;;;;;;;;;;7371491;19;1827;-53
2022/10/13 16:12:56;;;;;;;;;;;;;;;;;;7366789;19;870;-54
2022/10/13 16:15:25;;;;;;;;;;;;;;;;;;7364438;19;1862;-48
2022/10/13 16:17:53;;;;;;;;;;;;;;;;;;7367033;19;791;-52
2022/10/13 16:20:21;;;;;;;;;;;;;;;;;;7367288;19;1766;-51
2022/10/13 16:22:49;;;;;;;;;;;;;;;;;;7367229;19;762;-52
2022/10/13 16:25:18;;;;;;;;;;;;;;;;;;7369031;19;2005;-53
2022/10/13 16:27:46;;;;;;;;;;;;;;;;;;7366479;19;851;-54
2022/10/13 16:30:14;;;;;;;;;;;;;;;;;;7366764;19;807;-55
2022/10/13 16:32:42;;;;;;;;;;;;;;;;;;7366339;19;915;-49
2022/10/13 16:35:10;;;;;;;;;;;;;;;;;;7364740;19;1857;-53
2022/10/13 16:37:38;;;;;;;;;;;;;;;;;;7367062;19;867;-58
2022/10/13 16:40:06;;;;;;;;;;;;;;;;;;7367345;19;807;-54
2022/10/13 16:42:35;;;;;;;;;;;;;;;;;;7365743;19;801;-50
2022/10/13 16:45:03;;;;;;;;;;;;;;;;;;7363886;19;1266;-53
2022/10/13 16:47:31;;;;;;;;;;;;;;;;;;7366039;19;798;-53
2022/10/13 16:49:59;;;;;;;;;;;;;;;;;;7365804;19;877;-54
2022/10/13 16:52:27;;;;;;;;;;;;;;;;;;7371024;19;1697;-52
2022/10/13 16:54:55;;;;;;;;;;;;;;;;;;7364116;19;1853;-54
2022/10/13 16:57:24;;;;;;;;;;;;;;;;;;7366518;19;800;-50
2022/10/13 16:59:52;;;;;;;;;;;;;;;;;;7365316;19;893;-55
2022/10/13 17:02:20;;;;;;;;;;;;;;;;;;7366711;19;878;-51
2022/10/13 17:04:49;;;;;;;;;;;;;;;;;;7365286;19;1393;-53
2022/10/13 17:07:17;;;;;;;;;;;;;;;;;;7372419;19;925;-50
2022/10/13 17:09:46;;;;;;;;;;;;;;;;;;7371969;19;871;-49
2022/10/13 17:12:14;;;;;;;;;;;;;;;;;;7372146;19;736;-49
2022/10/13 17:14:42;;;;;;;;;;;;;;;;;;7372329;19;1685;-50
2022/10/13 17:17:10;;;;;;;;;;;;;;;;;;7370200;19;1846;-53